Time;durP1;ratioP1;P1;durP2;ratioP2;P2;SDS_P1;SDS_P2;PMS_P1;PMS_P2;Temp;Humidity;BMP_temperature;BMP_pressure;BME280_temperature;BME280_humidity;BME280_pressure;Samples;Min_cycle;Max_cycle;Signal;HPM_P1;HPM_P2
2023/12/11 00:02:50;;;;;;;;;;;16.50;59.10;;;;;;10316442;28;93453;-44
2023/12/11 00:07:51;;;;;;;;;;;16.50;58.80;;;;;;10308560;28;94457;-43
2023/12/11 00:12:53;;;;;;;;;;;16.50;58.60;;;;;;10309910;28;97258;-43
2023/12/11 00:17:55;;;;;;;;;;;16.50;58.90;;;;;;10305968;28;93805;-43
2023/12/11 00:22:57;;;;;;;;;;;16.40;59.30;;;;;;10300956;28;93717;-47
2023/12/11 00:27:59;;;;;;;;;;;16.40;59.30;;;;;;10312487;28;93280;-45
2023/12/11 00:33:01;;;;;;;;;;;16.40;59.20;;;;;;10320068;28;95049;-45
2023/12/11 00:38:03;;;;;;;;;;;16.40;58.90;;;;;;10309607;28;94733;-44
2023/12/11 00:43:04;;;;;;;;;;;16.40;58.70;;;;;;10309831;28;96615;-46
2023/12/11 00:48:06;;;;;;;;;;;16.40;58.40;;;;;;10311173;28;94194;-45
2023/12/11 00:53:08;;;;;;;;;;;16.40;58.10;;;;;;10315386;28;93410;-44
2023/12/11 00:58:10;;;;;;;;;;;16.40;58.00;;;;;;10306618;28;94457;-42
2023/12/11 01:03:12;;;;;;;;;;;16.40;57.80;;;;;;10298961;28;93534;-44
2023/12/11 01:08:14;;;;;;;;;;;16.40;57.60;;;;;;10296858;28;93173;-44
2023/12/11 01:13:15;;;;;;;;;;;16.40;58.00;;;;;;10306444;28;94172;-42
2023/12/11 01:18:17;;;;;;;;;;;16.40;58.70;;;;;;10318001;28;93414;-42
2023/12/11 01:23:19;;;;;;;;;;;16.30;58.50;;;;;;10310749;28;93685;-47
2023/12/11 01:28:21;;;;;;;;;;;16.30;58.40;;;;;;10297305;28;93457;-47
2023/12/11 01:33:23;;;;;;;;;;;16.30;58.20;;;;;;10325185;28;96916;-44
2023/12/11 01:38:25;;;;;;;;;;;16.30;58.00;;;;;;10325090;28;93493;-48
2023/12/11 01:43:27;;;;;;;;;;;16.30;57.80;;;;;;10325214;28;94451;-45
2023/12/11 01:48:29;;;;;;;;;;;16.30;57.60;;;;;;10324913;28;93299;-56
2023/12/11 01:53:31;;;;;;;;;;;16.30;57.40;;;;;;10300880;28;93882;-43
2023/12/11 01:58:33;;;;;;;;;;;16.30;57.20;;;;;;10316337;28;93412;-48
2023/12/11 02:03:35;;;;;;;;;;;16.30;57.00;;;;;;10719728;22;94551;-60
2023/12/11 02:08:37;;;;;;;;;;;16.30;57.70;;;;;;10312229;28;92709;-60
2023/12/11 02:13:40;;;;;;;;;;;16.20;58.20;;;;;;10317011;28;93009;-61
2023/12/11 02:18:42;;;;;;;;;;;16.20;58.20;;;;;;10303814;28;93330;-60
2023/12/11 02:23:44;;;;;;;;;;;16.20;59.00;;;;;;10311108;28;96370;-60
2023/12/11 02:28:46;;;;;;;;;;;16.20;57.80;;;;;;10321437;28;94400;-60
2023/12/11 02:33:48;;;;;;;;;;;16.20;57.60;;;;;;10323358;28;94776;-60
2023/12/11 02:38:50;;;;;;;;;;;16.20;57.40;;;;;;10316657;28;93561;-60
2023/12/11 02:43:52;;;;;;;;;;;16.20;57.20;;;;;;10319789;28;94414;-61
2023/12/11 02:48:54;;;;;;;;;;;16.20;56.90;;;;;;10309030;28;94439;-61
2023/12/11 02:53:56;;;;;;;;;;;16.20;56.80;;;;;;10321994;28;93269;-60
2023/12/11 02:58:57;;;;;;;;;;;16.20;56.80;;;;;;10311050;28;92191;-62
2023/12/11 03:03:59;;;;;;;;;;;16.20;57.40;;;;;;10315602;28;93765;-61
2023/12/11 03:09:02;;;;;;;;;;;16.10;58.00;;;;;;10300538;28;94439;-61
2023/12/11 03:14:04;;;;;;;;;;;16.10;58.00;;;;;;10317098;28;96814;-60
2023/12/11 03:19:06;;;;;;;;;;;16.10;57.70;;;;;;10317788;28;94493;-61
2023/12/11 03:24:08;;;;;;;;;;;16.10;57.50;;;;;;10306249;28;95551;-61
2023/12/11 03:29:10;;;;;;;;;;;16.10;57.40;;;;;;10317172;28;95003;-60
2023/12/11 03:34:12;;;;;;;;;;;16.10;57.20;;;;;;10307894;28;93449;-60
2023/12/11 03:39:14;;;;;;;;;;;16.10;56.90;;;;;;10322124;28;94068;-61
2023/12/11 03:44:16;;;;;;;;;;;16.10;56.80;;;;;;10321734;28;93413;-60
2023/12/11 03:49:20;;;;;;;;;;;16.20;56.70;;;;;;10319443;28;92759;-60
2023/12/11 03:54:22;;;;;;;;;;;16.20;56.70;;;;;;10309906;28;94857;-62
2023/12/11 03:59:23;;;;;;;;;;;16.10;57.30;;;;;;10302934;28;94753;-60
2023/12/11 04:04:25;;;;;;;;;;;16.10;57.70;;;;;;10306592;28;96852;-60
2023/12/11 04:09:27;;;;;;;;;;;16.10;57.80;;;;;;10319783;28;94370;-60
2023/12/11 04:14:29;;;;;;;;;;;16.10;58.00;;;;;;10328041;28;93476;-60
2023/12/11 04:19:31;;;;;;;;;;;16.10;58.20;;;;;;10319309;28;94555;-60
2023/12/11 04:24:32;;;;;;;;;;;16.00;58.30;;;;;;10321571;28;94753;-60
2023/12/11 04:29:34;;;;;;;;;;;16.00;59.40;;;;;;10313633;28;93504;-60
2023/12/11 04:34:36;;;;;;;;;;;16.00;58.50;;;;;;10322068;28;93931;-60
2023/12/11 04:39:38;;;;;;;;;;;16.00;58.70;;;;;;10305668;28;93773;-60
2023/12/11 04:44:39;;;;;;;;;;;16.00;59.80;;;;;;10326259;28;93000;-61
2023/12/11 04:49:42;;;;;;;;;;;16.00;59.00;;;;;;10323664;28;94431;-60
2023/12/11 04:54:47;;;;;;;;;;;16.00;59.10;;;;;;10315723;28;96637;-60
2023/12/11 04:59:49;;;;;;;;;;;16.00;59.20;;;;;;10299922;28;95000;-60
2023/12/11 05:04:51;;;;;;;;;;;15.90;59.30;;;;;;10319225;28;93904;-60
2023/12/11 05:09:53;;;;;;;;;;;15.90;59.50;;;;;;10332806;28;94605;-60
2023/12/11 05:14:55;;;;;;;;;;;16.00;59.60;;;;;;10328839;28;93685;-60
2023/12/11 05:19:57;;;;;;;;;;;16.00;59.40;;;;;;10319615;28;94497;-60
2023/12/11 05:24:59;;;;;;;;;;;16.10;59.40;;;;;;10316634;28;94443;-60
2023/12/11 05:30:01;;;;;;;;;;;16.10;59.30;;;;;;10313442;28;92664;-60
2023/12/11 05:35:03;;;;;;;;;;;16.10;59.30;;;;;;10301100;28;94471;-60
2023/12/11 05:40:06;;;;;;;;;;;16.10;59.40;;;;;;10317835;28;93802;-60
2023/12/11 05:45:24;;;;;;;;;;;16.10;59.60;;;;;;10295373;28;96046;-60
2023/12/11 05:50:25;;;;;;;;;;;16.20;59.70;;;;;;10320396;28;93677;-60
2023/12/11 05:55:27;;;;;;;;;;;16.40;59.50;;;;;;10319473;28;93789;-60
2023/12/11 06:00:29;;;;;;;;;;;16.60;59.20;;;;;;10307399;28;94498;-60
2023/12/11 06:05:31;;;;;;;;;;;16.70;58.80;;;;;;10301690;28;94575;-60
2023/12/11 06:10:33;;;;;;;;;;;16.90;58.60;;;;;;10321704;28;94912;-60
2023/12/11 06:15:35;;;;;;;;;;;16.90;58.40;;;;;;10322043;28;93375;-60
2023/12/11 06:20:37;;;;;;;;;;;16.90;58.40;;;;;;10323707;28;94822;-61
2023/12/11 06:25:39;;;;;;;;;;;16.90;58.50;;;;;;10309726;28;94405;-60
2023/12/11 06:30:41;;;;;;;;;;;16.80;58.50;;;;;;10320587;28;93405;-60
2023/12/11 06:35:43;;;;;;;;;;;16.80;58.60;;;;;;10308710;28;95860;-59
2023/12/11 06:40:45;;;;;;;;;;;16.70;58.70;;;;;;10287094;28;94082;-59
2023/12/11 06:45:47;;;;;;;;;;;16.70;58.80;;;;;;10312849;28;94411;-61
2023/12/11 06:50:49;;;;;;;;;;;16.70;60.30;;;;;;10290028;28;95001;-61
2023/12/11 06:55:50;;;;;;;;;;;16.60;60.80;;;;;;10314574;28;94071;-61
2023/12/11 07:00:52;;;;;;;;;;;16.60;61.00;;;;;;10317240;28;92712;-61
2023/12/11 07:05:54;;;;;;;;;;;16.60;61.30;;;;;;10318130;28;93804;-61
2023/12/11 07:10:56;;;;;;;;;;;16.70;61.40;;;;;;10317797;28;93893;-61
2023/12/11 07:15:58;;;;;;;;;;;16.70;60.90;;;;;;10318525;28;94425;-61
2023/12/11 07:21:00;;;;;;;;;;;16.70;60.90;;;;;;10316505;28;94562;-62
2023/12/11 07:26:06;;;;;;;;;;;16.70;60.90;;;;;;10311888;28;96831;-62
2023/12/11 07:31:07;;;;;;;;;;;16.70;60.90;;;;;;10291438;28;93839;-62
2023/12/11 07:36:10;;;;;;;;;;;16.60;60.90;;;;;;10299383;28;94612;-62
2023/12/11 07:41:17;;;;;;;;;;;16.60;61.00;;;;;;10316022;28;94857;-62
2023/12/11 07:46:20;;;;;;;;;;;16.50;61.20;;;;;;10318714;28;93463;-62
2023/12/11 07:51:25;;;;;;;;;;;16.50;61.40;;;;;;10311900;28;94759;-62
2023/12/11 07:56:29;;;;;;;;;;;16.50;61.50;;;;;;10308652;28;94753;-62
2023/12/11 08:01:31;;;;;;;;;;;16.40;61.60;;;;;;10323540;28;93801;-62
2023/12/11 08:06:38;;;;;;;;;;;16.40;61.80;;;;;;10311442;28;94853;-62
2023/12/11 08:11:40;;;;;;;;;;;16.40;61.70;;;;;;10321524;28;93762;-62
2023/12/11 08:16:42;;;;;;;;;;;16.30;61.80;;;;;;10320882;28;96798;-62
2023/12/11 08:21:44;;;;;;;;;;;16.30;61.80;;;;;;10312614;28;93501;-62
2023/12/11 08:26:47;;;;;;;;;;;16.30;61.80;;;;;;10290264;28;94962;-62
2023/12/11 08:31:49;;;;;;;;;;;16.20;61.90;;;;;;10296475;28;93467;-61
2023/12/11 08:36:51;;;;;;;;;;;16.20;61.80;;;;;;10320816;28;94423;-60
2023/12/11 08:41:53;;;;;;;;;;;16.20;62.10;;;;;;10291390;28;94388;-60
2023/12/11 08:46:55;;;;;;;;;;;16.10;62.20;;;;;;10300104;28;94855;-61
2023/12/11 08:51:56;;;;;;;;;;;16.20;62.40;;;;;;10302068;28;93615;-63
2023/12/11 08:56:58;;;;;;;;;;;16.20;63.10;;;;;;10302508;28;94322;-61
2023/12/11 09:02:00;;;;;;;;;;;16.20;64.30;;;;;;10300092;28;95005;-62
2023/12/11 09:07:02;;;;;;;;;;;16.30;64.90;;;;;;10315973;28;96654;-62
2023/12/11 09:12:04;;;;;;;;;;;16.30;66.00;;;;;;10318822;28;93517;-61
2023/12/11 09:17:13;;;;;;;;;;;16.50;64.40;;;;;;10318776;28;93772;-62
2023/12/11 09:22:15;;;;;;;;;;;16.80;63.80;;;;;;10301261;28;94375;-59
2023/12/11 09:27:17;;;;;;;;;;;17.10;63.30;;;;;;10283074;28;94499;-60
2023/12/11 09:32:19;;;;;;;;;;;17.30;62.70;;;;;;10300335;28;92988;-60
2023/12/11 09:37:21;;;;;;;;;;;17.60;62.20;;;;;;10317157;28;92970;-61
2023/12/11 09:42:24;;;;;;;;;;;17.70;61.70;;;;;;10317602;28;93618;-60
2023/12/11 09:47:26;;;;;;;;;;;17.80;61.30;;;;;;10317466;28;94447;-61
2023/12/11 09:52:29;;;;;;;;;;;17.90;61.20;;;;;;10302034;28;94324;-61
2023/12/11 09:57:31;;;;;;;;;;;17.80;61.10;;;;;;10311341;28;97028;-61
2023/12/11 10:02:33;;;;;;;;;;;17.70;61.10;;;;;;10307697;28;92551;-61
2023/12/11 10:07:36;;;;;;;;;;;17.70;61.30;;;;;;10309506;28;94486;-60
2023/12/11 10:12:38;;;;;;;;;;;17.70;61.70;;;;;;10315435;28;93875;-59
2023/12/11 10:17:40;;;;;;;;;;;17.70;61.50;;;;;;10288221;28;93412;-59
2023/12/11 10:22:42;;;;;;;;;;;17.70;61.30;;;;;;10317072;28;93634;-59
2023/12/11 10:27:45;;;;;;;;;;;17.70;61.40;;;;;;10309031;28;93490;-60
2023/12/11 10:32:46;;;;;;;;;;;17.70;61.40;;;;;;10298580;28;92764;-60
2023/12/11 10:37:48;;;;;;;;;;;17.80;61.40;;;;;;10305090;28;96138;-60
2023/12/11 10:42:57;;;;;;;;;;;17.90;61.20;;;;;;10319710;28;94573;-60
2023/12/11 10:47:59;;;;;;;;;;;18.00;61.00;;;;;;10306944;28;96353;-61
2023/12/11 10:53:02;;;;;;;;;;;18.20;60.70;;;;;;10316418;28;94065;-60
2023/12/11 10:58:06;;;;;;;;;;;18.20;60.30;;;;;;10303880;28;94589;-60
2023/12/11 11:03:09;;;;;;;;;;;18.30;60.20;;;;;;10318901;28;94505;-60
2023/12/11 11:08:25;;;;;;;;;;;18.20;60.20;;;;;;10312813;28;94098;-59
2023/12/11 11:13:38;;;;;;;;;;;18.20;60.20;;;;;;10311743;28;94557;-60
2023/12/11 11:19:03;;;;;;;;;;;18.10;60.50;;;;;;10322621;28;115198;-60
2023/12/11 11:24:24;;;;;;;;;;;18.10;60.40;;;;;;10321706;28;94178;-60
2023/12/11 11:29:52;;;;;;;;;;;18.10;60.30;;;;;;10317210;28;93734;-59
2023/12/11 11:34:54;;;;;;;;;;;18.00;60.30;;;;;;10308481;28;93923;-59
2023/12/11 11:39:58;;;;;;;;;;;18.00;60.40;;;;;;10313926;28;97075;-59
2023/12/11 11:45:02;;;;;;;;;;;17.90;60.50;;;;;;10312562;28;94915;-60
2023/12/11 11:50:04;;;;;;;;;;;18.00;60.50;;;;;;10313982;28;93515;-61
2023/12/11 11:55:06;;;;;;;;;;;17.90;60.40;;;;;;10307292;28;94085;-59
2023/12/11 12:00:09;;;;;;;;;;;17.90;60.40;;;;;;10294903;28;94412;-60
2023/12/11 12:05:11;;;;;;;;;;;17.80;60.40;;;;;;10306623;28;94429;-60
2023/12/11 12:10:15;;;;;;;;;;;17.80;61.10;;;;;;10318440;28;94584;-60
2023/12/11 12:15:19;;;;;;;;;;;17.70;61.20;;;;;;10323386;28;93312;-60
2023/12/11 12:20:21;;;;;;;;;;;17.60;61.30;;;;;;10320579;28;93954;-60
2023/12/11 12:25:23;;;;;;;;;;;17.50;61.40;;;;;;10320925;28;94801;-60
2023/12/11 12:30:25;;;;;;;;;;;17.40;61.60;;;;;;10308055;28;98184;-60
2023/12/11 12:35:28;;;;;;;;;;;17.30;61.60;;;;;;10326039;28;94367;-60
2023/12/11 12:40:36;;;;;;;;;;;17.30;61.70;;;;;;10329930;28;94220;-60
2023/12/11 12:45:38;;;;;;;;;;;17.20;61.80;;;;;;10316961;28;94024;-60
2023/12/11 12:50:40;;;;;;;;;;;17.20;62.00;;;;;;10327084;28;93513;-61
2023/12/11 12:55:42;;;;;;;;;;;17.10;62.00;;;;;;10328013;28;93378;-60
2023/12/11 13:00:44;;;;;;;;;;;17.10;62.20;;;;;;10328277;28;94351;-60
2023/12/11 13:05:48;;;;;;;;;;;17.00;62.30;;;;;;10302702;28;94014;-61
2023/12/11 13:10:56;;;;;;;;;;;17.00;62.50;;;;;;10325927;28;92881;-60
2023/12/11 13:15:58;;;;;;;;;;;16.90;62.50;;;;;;10327812;28;94439;-60
2023/12/11 13:21:00;;;;;;;;;;;16.90;62.60;;;;;;10325875;28;96698;-61
2023/12/11 13:26:02;;;;;;;;;;;16.80;62.60;;;;;;10309428;28;94431;-60
2023/12/11 13:31:04;;;;;;;;;;;16.80;62.70;;;;;;10328234;28;93486;-61
2023/12/11 13:36:07;;;;;;;;;;;16.70;62.90;;;;;;10327372;28;94290;-60
2023/12/11 13:41:10;;;;;;;;;;;16.70;62.70;;;;;;10304037;28;93408;-60
2023/12/11 13:46:11;;;;;;;;;;;16.70;62.90;;;;;;10325567;28;94726;-60
2023/12/11 13:51:13;;;;;;;;;;;16.60;62.80;;;;;;10324811;28;93876;-60
2023/12/11 13:56:15;;;;;;;;;;;16.60;62.90;;;;;;10309103;28;91822;-59
2023/12/11 14:01:17;;;;;;;;;;;16.60;63.00;;;;;;10325135;28;93449;-59
2023/12/11 14:06:20;;;;;;;;;;;16.50;63.10;;;;;;10298629;28;93455;-59
2023/12/11 14:11:22;;;;;;;;;;;16.50;63.00;;;;;;10306550;28;96940;-59
2023/12/11 14:16:23;;;;;;;;;;;16.50;63.10;;;;;;10306547;28;94052;-60
2023/12/11 14:21:25;;;;;;;;;;;16.40;63.00;;;;;;10327193;28;94425;-60
2023/12/11 14:26:27;;;;;;;;;;;16.40;63.00;;;;;;10306952;28;94342;-59
2023/12/11 14:31:32;;;;;;;;;;;16.40;63.10;;;;;;10326135;28;93653;-59
2023/12/11 14:36:33;;;;;;;;;;;16.40;63.10;;;;;;10295810;28;94273;-59
2023/12/11 14:41:39;;;;;;;;;;;16.30;63.10;;;;;;10324493;28;94286;-59
2023/12/11 14:46:41;;;;;;;;;;;16.30;63.10;;;;;;10307808;28;92241;-59
2023/12/11 14:51:43;;;;;;;;;;;16.30;63.00;;;;;;10324770;28;94405;-60
2023/12/11 14:56:45;;;;;;;;;;;16.30;63.10;;;;;;10321976;28;95222;-61
2023/12/11 15:01:47;;;;;;;;;;;16.30;63.10;;;;;;10302048;28;96715;-61
2023/12/11 15:06:50;;;;;;;;;;;16.30;63.10;;;;;;10323062;28;94510;-60
2023/12/11 15:11:52;;;;;;;;;;;16.20;63.10;;;;;;10306634;28;94492;-60
2023/12/11 15:16:54;;;;;;;;;;;16.20;63.10;;;;;;10323914;28;94609;-61
2023/12/11 15:21:56;;;;;;;;;;;16.20;63.10;;;;;;10318658;28;94045;-60
2023/12/11 15:26:58;;;;;;;;;;;16.20;63.10;;;;;;10306368;28;94489;-61
2023/12/11 15:32:00;;;;;;;;;;;16.20;63.10;;;;;;10294657;28;93555;-61
2023/12/11 15:37:04;;;;;;;;;;;16.20;63.40;;;;;;10322943;28;92589;-61
2023/12/11 15:42:06;;;;;;;;;;;16.20;63.00;;;;;;10323046;28;94047;-61
2023/12/11 15:47:08;;;;;;;;;;;16.20;62.90;;;;;;10305668;28;93539;-61
2023/12/11 15:52:10;;;;;;;;;;;16.20;63.00;;;;;;10302927;28;96926;-61
2023/12/11 15:57:12;;;;;;;;;;;16.20;62.90;;;;;;10323127;28;93586;-60
2023/12/11 16:02:14;;;;;;;;;;;16.20;62.90;;;;;;10323186;28;94658;-60
2023/12/11 16:07:16;;;;;;;;;;;16.20;62.90;;;;;;10294103;28;95967;-60
2023/12/11 16:12:18;;;;;;;;;;;16.20;62.80;;;;;;10322130;28;94481;-59
2023/12/11 16:17:20;;;;;;;;;;;16.20;62.70;;;;;;10322758;28;94689;-61
2023/12/11 16:22:22;;;;;;;;;;;16.10;62.70;;;;;;10321540;28;93681;-59
2023/12/11 16:27:26;;;;;;;;;;;16.10;62.70;;;;;;10323184;28;93324;-60
2023/12/11 16:32:28;;;;;;;;;;;16.10;62.70;;;;;;10322585;28;93772;-59
2023/12/11 16:37:31;;;;;;;;;;;16.10;62.80;;;;;;10321357;28;93792;-59
2023/12/11 16:42:34;;;;;;;;;;;16.10;62.70;;;;;;10301269;28;96833;-60
2023/12/11 16:47:36;;;;;;;;;;;16.00;62.60;;;;;;10302259;28;94716;-60
2023/12/11 16:52:38;;;;;;;;;;;16.00;62.70;;;;;;10306786;28;94004;-61
2023/12/11 16:57:41;;;;;;;;;;;16.00;62.80;;;;;;10308559;28;93537;-61
2023/12/11 17:02:43;;;;;;;;;;;16.00;64.00;;;;;;10314440;28;95136;-61
2023/12/11 17:07:45;;;;;;;;;;;16.10;64.30;;;;;;10304983;28;93583;-61
2023/12/11 17:12:47;;;;;;;;;;;16.20;63.70;;;;;;10310878;28;95104;-61
2023/12/11 17:17:49;;;;;;;;;;;16.50;63.30;;;;;;10312004;28;93646;-61
2023/12/11 17:22:51;;;;;;;;;;;16.80;63.00;;;;;;10316596;28;93655;-61
2023/12/11 17:27:53;;;;;;;;;;;17.10;62.50;;;;;;10327535;28;93673;-61
2023/12/11 17:32:55;;;;;;;;;;;17.30;61.90;;;;;;10325939;28;96973;-61
2023/12/11 17:37:57;;;;;;;;;;;17.50;61.50;;;;;;10323514;28;95298;-62
2023/12/11 17:42:59;;;;;;;;;;;17.60;61.00;;;;;;10297654;28;94605;-61
2023/12/11 17:48:02;;;;;;;;;;;17.80;60.70;;;;;;10324247;28;93321;-62
2023/12/11 17:53:04;;;;;;;;;;;17.90;60.40;;;;;;10318414;28;93900;-60
2023/12/11 17:58:06;;;;;;;;;;;17.90;61.30;;;;;;10324331;28;93099;-60
2023/12/11 18:03:08;;;;;;;;;;;17.90;60.10;;;;;;10307977;28;95058;-60
2023/12/11 18:08:10;;;;;;;;;;;17.80;60.00;;;;;;10326408;28;92729;-59
2023/12/11 18:13:12;;;;;;;;;;;17.70;60.00;;;;;;10325149;28;94412;-61
2023/12/11 18:18:14;;;;;;;;;;;17.80;59.90;;;;;;10326084;28;94684;-60
2023/12/11 18:23:16;;;;;;;;;;;17.90;59.80;;;;;;10304588;28;96951;-60
2023/12/11 18:28:18;;;;;;;;;;;18.00;59.70;;;;;;10319610;28;93511;-60
2023/12/11 18:33:20;;;;;;;;;;;18.10;59.30;;;;;;10325216;28;94888;-60
2023/12/11 18:38:22;;;;;;;;;;;18.20;59.00;;;;;;10326144;28;93833;-60
2023/12/11 18:43:24;;;;;;;;;;;18.20;58.70;;;;;;10326115;28;94914;-60
2023/12/11 18:48:28;;;;;;;;;;;18.20;58.60;;;;;;10325538;28;94472;-60
2023/12/11 18:53:30;;;;;;;;;;;18.10;58.70;;;;;;10321620;28;93420;-60
2023/12/11 18:58:31;;;;;;;;;;;18.10;58.90;;;;;;10325386;28;93520;-60
2023/12/11 19:03:33;;;;;;;;;;;18.10;58.90;;;;;;10323312;28;94677;-60
2023/12/11 19:08:35;;;;;;;;;;;18.10;58.80;;;;;;10322594;28;94023;-60
2023/12/11 19:13:37;;;;;;;;;;;18.00;58.80;;;;;;10303959;28;96150;-60
2023/12/11 19:18:39;;;;;;;;;;;18.00;59.00;;;;;;10323778;28;93462;-60
2023/12/11 19:23:41;;;;;;;;;;;18.00;59.00;;;;;;10306043;28;92573;-60
2023/12/11 19:28:43;;;;;;;;;;;18.00;59.00;;;;;;10322197;28;93542;-60
2023/12/11 19:33:46;;;;;;;;;;;17.90;58.90;;;;;;10304261;28;93568;-60
2023/12/11 19:38:48;;;;;;;;;;;17.90;59.10;;;;;;10322931;28;94493;-59
2023/12/11 19:43:50;;;;;;;;;;;18.00;59.20;;;;;;10322444;28;93569;-59
2023/12/11 19:48:52;;;;;;;;;;;18.00;58.90;;;;;;10315463;28;94025;-59
2023/12/11 19:53:55;;;;;;;;;;;18.20;58.70;;;;;;10305538;28;94659;-59
2023/12/11 19:58:57;;;;;;;;;;;18.10;58.50;;;;;;10322742;28;93793;-60
2023/12/11 20:03:59;;;;;;;;;;;18.10;58.50;;;;;;10301035;28;96902;-59
2023/12/11 20:09:01;;;;;;;;;;;18.10;58.60;;;;;;10320548;28;93507;-60
2023/12/11 20:14:02;;;;;;;;;;;18.20;58.40;;;;;;10317403;28;94535;-60
2023/12/11 20:19:04;;;;;;;;;;;18.20;58.40;;;;;;10322850;28;94851;-60
2023/12/11 20:24:06;;;;;;;;;;;18.10;58.30;;;;;;10321951;28;94481;-59
2023/12/11 20:29:08;;;;;;;;;;;18.10;58.40;;;;;;10321040;28;93595;-59
2023/12/11 20:34:10;;;;;;;;;;;18.10;58.30;;;;;;10314321;28;94648;-60
2023/12/11 20:39:13;;;;;;;;;;;18.20;58.20;;;;;;10321832;28;92683;-59
2023/12/11 20:44:15;;;;;;;;;;;18.20;58.10;;;;;;10322317;28;93735;-60
2023/12/11 20:49:17;;;;;;;;;;;18.10;58.10;;;;;;10320304;28;93433;-59
2023/12/11 20:54:19;;;;;;;;;;;18.00;58.10;;;;;;10320382;28;96961;-59
2023/12/11 20:59:21;;;;;;;;;;;18.00;58.40;;;;;;10328110;28;93675;-60
2023/12/11 21:04:25;;;;;;;;;;;17.90;58.50;;;;;;10309460;28;94605;-60
2023/12/11 21:09:27;;;;;;;;;;;17.70;58.60;;;;;;10326788;28;94548;-59
2023/12/11 21:14:29;;;;;;;;;;;17.60;58.70;;;;;;10321715;28;92676;-59
2023/12/11 21:19:31;;;;;;;;;;;17.60;59.00;;;;;;10321835;28;93870;-59
2023/12/11 21:24:33;;;;;;;;;;;17.50;59.10;;;;;;10313890;28;94629;-59
2023/12/11 21:29:35;;;;;;;;;;;17.40;59.30;;;;;;10327256;28;93927;-59
2023/12/11 21:34:41;;;;;;;;;;;17.30;59.60;;;;;;10323652;28;94581;-59
2023/12/11 21:39:43;;;;;;;;;;;17.20;59.80;;;;;;10326250;28;94469;-59
2023/12/11 21:44:45;;;;;;;;;;;17.20;59.90;;;;;;10317993;28;94989;-60
2023/12/11 21:49:47;;;;;;;;;;;17.10;59.70;;;;;;10323524;28;94640;-60
2023/12/11 21:54:49;;;;;;;;;;;17.10;59.40;;;;;;10319625;28;93992;-59
2023/12/11 21:59:51;;;;;;;;;;;17.00;59.30;;;;;;10297566;28;94933;-60
2023/12/11 22:04:53;;;;;;;;;;;17.00;59.10;;;;;;10322731;28;94384;-60
2023/12/11 22:09:55;;;;;;;;;;;17.00;58.90;;;;;;10307303;28;94754;-60
2023/12/11 22:14:56;;;;;;;;;;;16.90;58.70;;;;;;10326178;28;94715;-60
2023/12/11 22:19:58;;;;;;;;;;;16.90;58.50;;;;;;10326290;28;92746;-60
2023/12/11 22:25:00;;;;;;;;;;;16.80;58.40;;;;;;10319307;28;95228;-60
2023/12/11 22:30:03;;;;;;;;;;;16.80;58.70;;;;;;10325069;28;93135;-60
2023/12/11 22:35:05;;;;;;;;;;;16.70;59.20;;;;;;10323433;28;96141;-60
2023/12/11 22:40:07;;;;;;;;;;;16.70;59.10;;;;;;10324499;28;93834;-60
2023/12/11 22:45:09;;;;;;;;;;;16.60;58.80;;;;;;10325688;28;94426;-61
2023/12/11 22:50:11;;;;;;;;;;;16.60;58.50;;;;;;10325611;28;93930;-60
2023/12/11 22:55:13;;;;;;;;;;;16.60;58.40;;;;;;10325596;28;94421;-59
2023/12/11 23:00:22;;;;;;;;;;;16.60;58.10;;;;;;10322410;28;94642;-60
2023/12/11 23:05:24;;;;;;;;;;;16.60;57.90;;;;;;10320887;28;94086;-60
2023/12/11 23:10:26;;;;;;;;;;;16.60;57.70;;;;;;10323571;28;94113;-60
2023/12/11 23:15:28;;;;;;;;;;;16.60;57.50;;;;;;10323466;28;93523;-60
2023/12/11 23:20:29;;;;;;;;;;;16.60;57.40;;;;;;10323235;28;95268;-60
2023/12/11 23:25:31;;;;;;;;;;;16.50;58.10;;;;;;10320892;28;95825;-60
2023/12/11 23:30:33;;;;;;;;;;;16.50;58.30;;;;;;10323689;28;94545;-61
2023/12/11 23:35:35;;;;;;;;;;;16.50;58.30;;;;;;10323145;28;94425;-60
2023/12/11 23:40:37;;;;;;;;;;;16.50;57.90;;;;;;10306416;28;93350;-60
2023/12/11 23:45:39;;;;;;;;;;;16.50;57.60;;;;;;10322711;28;94440;-60
2023/12/11 23:50:40;;;;;;;;;;;16.50;57.40;;;;;;10323096;28;93782;-61
2023/12/11 23:55:42;;;;;;;;;;;16.50;57.10;;;;;;10293833;28;94792;-60
